Portada
METAR-TAF:

METAR-TAF

Aeropuertos :

Aeropuerto de Pula

Pula, Croacia

latitud: 44-54N, longitud: 013-55E, altitud: 63 m

Observación

El informe se hizo hace 18 minutos, a las 02:30 UTC
Viento 6 kt del norte-noreste
Temperatura 5°C
Humedad 52%
Presión 1006 hPa
Visibilidad 10 km o más
sin nubes por debajo de 1500 m y sin presencia de cumulonimbus.

METAR: LDPL 270230Z 03006KT CAVOK 05/M04 Q1006

Hora: 03:48 (02:48 UTC)

Pronóstico

El informe se hizo hace 3 horas y 23 minutos, a las 23:25 UTC
Pronóstico válido del 27 a las 00 UTC al 28 a las 00 UTC
Viento 8 kt del oeste-noroeste
Visibilidad 10 km o más
Cielo nuboso a una altura de 3500 ft
Evolucionando progresivamente
del 27 a las 16 UTC al 27 a las 18 UTC
Viento 15 kt del oeste

TAF: LDPL 262325Z 2700/2800 30008KT 9999 BKN035 TX11/2713Z TN02/2705Z BECMG 2716/2718 27015KT

Observaciones y pronósticos meteorológicos de más de 4000 aeropuertos (mensajes METAR y TAF).

Los puntos amarillos y rojos representan las estaciones disponibles.

Ponga el ratón en el punto deseado para ver el nombre de la estación.

Haga clic para ver las observaciones y los pronósticos meteorológicos.

Para cambiar el mapa : haga clic en los botones verdes con una cruz de color negro para hacer un zoom, en el botón verde con un guión para alejar o en las flechas verdes para mapas adyacentes.


METAR-TAF: